Time;durP1;ratioP1;P1;durP2;ratioP2;P2;SDS_P1;SDS_P2;PMS_P1;PMS_P2;Temp;Humidity;BMP_temperature;BMP_pressure;BME280_temperature;BME280_humidity;BME280_pressure;Samples;Min_cycle;Max_cycle;Signal;HPM_P1;HPM_P2
2022/11/28 00:01:34;;;;;;;8.50;4.90;;;;;;;7.05;91.88;100934.00;4927733;28;20048;-74
2022/11/28 00:04:06;;;;;;;;;;;;;;;7.03;90.97;100928.78;4934022;28;20067;-74
2022/11/28 00:06:40;;;;;;;7.63;4.75;;;;;;;7.04;91.22;100927.91;4933994;28;19926;-74
2022/11/28 00:09:07;;;;;;;9.17;4.80;;;;;;;7.08;91.21;100929.59;4924208;28;20040;-74
2022/11/28 00:11:35;;;;;;;9.27;4.88;;;;;;;7.13;91.20;100930.41;4930565;29;20044;-74
2022/11/28 00:14:02;;;;;;;6.05;4.50;;;;;;;7.17;90.85;100930.38;4918288;29;20051;-74
2022/11/28 00:16:29;;;;;;;7.20;4.35;;;;;;;7.22;90.73;100925.91;4928659;29;20041;-74
2022/11/28 00:18:59;;;;;;;7.57;4.43;;;;;;;7.23;91.22;100923.25;4928662;29;20070;-74
2022/11/28 00:21:27;;;;;;;6.65;4.10;;;;;;;7.27;90.88;100926.72;4933833;28;20067;-74
2022/11/28 00:23:55;;;;;;;8.45;4.63;;;;;;;7.30;90.88;100921.41;4923601;28;20043;-75
2022/11/28 00:26:33;;;;;;;6.97;4.18;;;;;;;7.33;91.15;100915.22;4932997;28;20045;-75
2022/11/28 00:29:02;;;;;;;5.43;3.97;;;;;;;7.34;91.59;100912.59;4928975;29;20050;-75
2022/11/28 00:31:41;;;;;;;5.78;4.38;;;;;;;7.35;91.65;100911.72;4920266;28;20129;-75
2022/11/28 00:34:12;;;;;;;5.82;4.35;;;;;;;7.36;91.53;100918.69;4933809;28;20044;-75
2022/11/28 00:36:44;;;;;;;5.82;4.10;;;;;;;7.37;91.74;100902.09;4932173;28;20581;-75
2022/11/28 00:39:12;;;;;;;6.15;4.05;;;;;;;7.38;91.96;100902.94;4923147;28;20086;-75
2022/11/28 00:41:39;;;;;;;6.55;4.20;;;;;;;7.38;91.62;100895.91;4925395;29;20050;-76
2022/11/28 00:44:07;;;;;;;6.88;4.45;;;;;;;7.37;91.78;100894.22;4927961;28;20414;-76
2022/11/28 00:46:35;;;;;;;6.78;4.45;;;;;;;7.41;92.00;100900.28;4938585;28;20040;-76
2022/11/28 00:49:02;;;;;;;8.45;4.00;;;;;;;7.43;91.87;100893.22;4925338;28;20037;-75
2022/11/28 00:51:32;;;;;;;6.55;4.25;;;;;;;7.43;91.63;100890.59;4926239;28;20494;-75
2022/11/28 00:54:02;;;;;;;6.80;4.22;;;;;;;7.45;91.41;100880.94;4922031;29;20044;-75
2022/11/28 00:56:36;;;;;;;6.57;4.07;;;;;;;7.47;91.68;100889.66;4932911;29;20044;-75
2022/11/28 00:59:04;;;;;;;6.95;4.63;;;;;;;7.48;91.65;100878.28;4929079;28;20124;-76
2022/11/28 01:01:42;;;;;;;7.90;4.82;;;;;;;7.50;91.96;100888.72;4932869;29;20974;-75
2022/11/28 01:04:14;;;;;;;8.00;4.82;;;;;;;7.50;91.74;100888.72;4933078;29;20500;-76
2022/11/28 01:06:49;;;;;;;7.80;4.07;;;;;;;7.52;91.57;100881.72;4922599;29;20052;-76
2022/11/28 01:09:22;;;;;;;8.18;4.20;;;;;;;7.53;91.76;100884.31;4926744;28;20113;-76
2022/11/28 01:11:52;;;;;;;7.40;4.13;;;;;;;7.56;91.84;100878.16;4917742;29;20263;-75
2022/11/28 01:14:23;;;;;;;7.68;4.47;;;;;;;7.56;92.11;100881.63;4916746;29;20045;-73
2022/11/28 01:16:51;;;;;;;6.53;4.40;;;;;;;7.55;92.12;100887.78;4926851;29;20131;-73
2022/11/28 01:19:18;;;;;;;7.05;4.15;;;;;;;7.55;91.87;100887.78;4930252;28;20040;-72
2022/11/28 01:21:45;;;;;;;7.60;4.30;;;;;;;7.56;92.05;100886.88;4932128;28;20087;-73
2022/11/28 01:24:13;;;;;;;10.88;5.10;;;;;;;7.56;92.38;100884.25;4932786;28;20052;-74
2022/11/28 01:26:41;;;;;;;8.15;4.75;;;;;;;7.58;92.36;100894.75;4924680;28;20044;-75
2022/11/28 01:29:09;;;;;;;6.53;3.90;;;;;;;7.59;92.31;100888.56;4920431;29;20059;-75
2022/11/28 01:31:38;;;;;;;8.45;5.03;;;;;;;7.58;92.45;100879.84;4921856;28;20339;-73
2022/11/28 01:34:05;;;;;;;7.10;4.30;;;;;;;7.57;92.23;100875.50;4924434;29;20901;-73
2022/11/28 01:36:32;;;;;;;7.35;4.70;;;;;;;7.58;92.59;100889.50;4928908;28;20080;-73
2022/11/28 01:38:59;;;;;;;7.10;4.82;;;;;;;7.60;92.38;100879.81;4924514;28;20131;-73
2022/11/28 01:41:27;;;;;;;6.28;4.43;;;;;;;7.56;92.62;100881.63;4926186;29;20429;-74
2022/11/28 01:44:13;;;;;;;6.68;4.47;;;;;;;7.57;92.73;100882.53;4930117;28;20075;-74
2022/11/28 01:46:41;;;;;;;8.27;4.47;;;;;;;7.55;92.99;100877.28;4929077;28;20066;-73
2022/11/28 01:49:27;;;;;;;7.60;4.72;;;;;;;7.55;92.89;100874.66;4921989;28;20145;-72
2022/11/28 01:52:03;;;;;;;8.65;4.50;;;;;;;7.54;92.92;100882.56;4929250;29;20052;-73
2022/11/28 01:54:34;;;;;;;6.22;4.80;;;;;;;7.52;92.82;100881.72;4932972;28;20056;-73
2022/11/28 01:57:06;;;;;;;9.35;4.78;;;;;;;7.51;93.01;100872.09;4930321;28;20096;-73
2022/11/28 01:59:50;;;;;;;8.45;5.00;;;;;;;7.53;92.93;100881.69;4923455;28;20051;-72
2022/11/28 02:02:28;;;;;;;7.32;4.63;;;;;;;7.53;93.04;100883.44;4920726;29;20179;-72
2022/11/28 02:04:57;;;;;;;7.93;4.38;;;;;;;7.52;92.92;100879.97;4923607;29;20530;-76
2022/11/28 02:07:25;;;;;;;8.20;4.90;;;;;;;7.52;92.88;100872.09;4931601;28;20056;-76
2022/11/28 02:09:53;;;;;;;8.95;5.05;;;;;;;7.52;93.04;100866.84;4929691;28;20037;-76
2022/11/28 02:12:50;;;;;;;8.15;4.63;;;;;;;7.53;93.08;100863.31;4930803;28;20045;-75
2022/11/28 02:15:49;;;;;;;6.28;4.40;;;;;;;7.55;93.58;100866.78;4918665;29;20044;-75
2022/11/28 02:18:36;;;;;;;9.00;4.80;;;;;;;7.53;93.81;100875.56;4932701;29;20048;-76
2022/11/28 02:21:23;;;;;;;9.60;4.60;;;;;;;7.48;94.45;100862.53;4933107;28;20501;-76
2022/11/28 02:24:30;;;;;;;6.93;4.25;;;;;;;7.50;94.59;100871.25;4933289;28;20179;-76
2022/11/28 02:27:10;;;;;;;8.10;4.53;;;;;;;7.50;95.11;100857.25;4928513;28;20044;-75
2022/11/28 02:30:09;;;;;;;7.35;4.38;;;;;;;7.48;95.38;100853.81;4924612;29;20048;-74
2022/11/28 02:33:11;;;;;;;7.22;4.90;;;;;;;7.48;95.59;100856.44;4912671;29;20066;-74
2022/11/28 02:35:58;;;;;;;7.75;5.10;;;;;;;7.45;95.73;100858.22;4935567;28;20040;-74
2022/11/28 02:38:56;;;;;;;7.30;5.00;;;;;;;7.45;95.98;100858.22;4928342;29;20052;-73
2022/11/28 02:41:41;;;;;;;9.32;5.15;;;;;;;7.44;96.22;100853.88;4925906;29;20044;-75
2022/11/28 02:44:16;;;;;;;8.15;5.63;;;;;;;7.44;96.43;100858.22;4924313;28;20052;-72
2022/11/28 02:46:46;;;;;;;8.18;5.30;;;;;;;7.41;96.58;100846.03;4931961;28;20047;-71
2022/11/28 02:49:28;;;;;;;8.55;5.38;;;;;;;7.38;96.59;100846.06;4932495;28;20053;-71
2022/11/28 02:52:08;;;;;;;10.23;5.40;;;;;;;7.37;96.67;100854.88;4934120;28;20052;-71
2022/11/28 02:54:38;;;;;;;9.45;5.93;;;;;;;7.37;96.67;100853.97;4924695;29;20048;-71
2022/11/28 02:57:07;;;;;;;10.32;5.60;;;;;;;7.35;96.87;100851.41;4928630;28;20395;-71
2022/11/28 02:59:37;;;;;;;8.13;5.95;;;;;;;7.35;97.03;100846.16;4926932;28;20052;-71
2022/11/28 03:02:21;;;;;;;8.77;5.88;;;;;;;7.34;97.07;100844.41;4927384;28;20086;-72
2022/11/28 03:05:26;;;;;;;11.30;6.32;;;;;;;7.33;97.03;100841.81;4935721;28;20103;-71
2022/11/28 03:08:37;;;;;;;10.85;5.75;;;;;;;7.31;96.92;100847.09;4934811;28;20143;-72
2022/11/28 03:11:38;;;;;;;11.15;6.18;;;;;;;7.29;97.05;100851.47;4933476;28;20123;-72
2022/11/28 03:14:52;;;;;;;9.20;5.72;;;;;;;7.28;97.19;100849.75;4925467;29;20051;-71
2022/11/28 03:18:05;;;;;;;8.98;5.82;;;;;;;7.26;97.38;100841.06;4928622;29;20048;-71
2022/11/28 03:20:46;;;;;;;10.18;6.10;;;;;;;7.25;97.40;100848.06;4930393;29;20044;-70
2022/11/28 03:23:19;;;;;;;11.32;6.68;;;;;;;7.26;97.25;100848.94;4935099;28;20924;-70
2022/11/28 03:26:21;;;;;;;11.90;6.18;;;;;;;7.24;97.38;100843.69;4935033;29;20044;-70
2022/11/28 03:28:57;;;;;;;10.32;6.60;;;;;;;7.20;97.43;100847.28;4932696;28;20076;-70
2022/11/28 03:31:35;;;;;;;11.57;5.88;;;;;;;7.20;97.56;100849.91;4918977;29;20142;-70
2022/11/28 03:34:08;;;;;;;13.63;6.90;;;;;;;7.18;97.66;100843.81;4929541;28;20059;-70
2022/11/28 03:36:49;;;;;;;11.43;6.65;;;;;;;7.18;97.76;100845.53;4930542;28;20051;-70
2022/11/28 03:39:23;;;;;;;13.43;6.55;;;;;;;7.18;97.79;100846.44;4932253;29;20063;-70
2022/11/28 03:42:02;;;;;;;12.05;6.85;;;;;;;7.18;97.68;100841.19;4930429;28;20044;-70
2022/11/28 03:44:46;;;;;;;11.98;6.57;;;;;;;7.20;97.87;100844.66;4933427;29;20040;-70
2022/11/28 03:47:14;;;;;;;9.30;6.38;;;;;;;7.15;98.11;100842.09;4932108;28;20506;-70
2022/11/28 03:49:50;;;;;;;12.75;7.00;;;;;;;7.18;98.24;100841.19;4932665;28;20047;-70
2022/11/28 03:52:35;;;;;;;9.60;6.32;;;;;;;7.15;98.13;100836.88;4924487;28;20044;-70
2022/11/28 03:55:11;;;;;;;9.48;6.43;;;;;;;7.17;98.34;100841.22;4928662;29;20107;-70
2022/11/28 03:57:48;;;;;;;10.23;6.20;;;;;;;7.15;98.39;100834.25;4933662;28;20566;-70
2022/11/28 04:00:16;;;;;;;9.70;6.05;;;;;;;7.14;98.68;100835.13;4933000;28;20087;-70
2022/11/28 04:03:10;;;;;;;9.07;6.15;;;;;;;7.18;98.59;100841.19;4922376;28;20071;-70
2022/11/28 04:05:47;;;;;;;10.18;5.93;;;;;;;7.18;98.82;100837.69;4929647;29;20047;-70
2022/11/28 04:08:42;;;;;;;11.10;6.10;;;;;;;7.19;98.50;100839.41;4931580;29;20127;-70
2022/11/28 04:11:17;;;;;;;;;;;;;;;7.17;98.70;100839.44;4929295;28;20137;-70
2022/11/28 04:13:55;;;;;;;8.82;5.95;;;;;;;7.18;98.90;100845.53;4923218;29;19954;-70
2022/11/28 04:16:36;;;;;;;13.18;6.03;;;;;;;7.17;99.25;100847.31;4917697;29;20096;-70
2022/11/28 04:19:59;;;;;;;10.10;6.50;;;;;;;7.21;99.10;100851.63;4930493;28;20417;-71
2022/11/28 04:22:34;;;;;;;10.45;6.00;;;;;;;7.23;99.25;100849.81;4913186;28;20048;-70
2022/11/28 04:25:09;;;;;;;10.48;6.22;;;;;;;7.25;99.28;100850.66;4929805;28;20048;-70
2022/11/28 04:27:45;;;;;;;8.07;5.57;;;;;;;7.25;99.36;100847.19;4931677;28;20052;-70
2022/11/28 04:30:14;;;;;;;9.50;5.97;;;;;;;7.26;99.39;100848.94;4932015;28;20048;-70
2022/11/28 04:32:50;;;;;;;9.50;6.10;;;;;;;7.29;99.53;100855.00;4929118;28;20534;-70
2022/11/28 04:35:28;;;;;;;9.75;6.10;;;;;;;7.30;99.61;100848.84;4933482;28;20044;-70
2022/11/28 04:37:59;;;;;;;10.05;6.13;;;;;;;7.30;99.50;100854.09;4932452;28;20056;-72
2022/11/28 04:40:34;;;;;;;11.35;6.20;;;;;;;7.30;99.68;100848.84;4924431;29;20060;-72
2022/11/28 04:43:10;;;;;;;10.35;5.68;;;;;;;7.30;99.53;100850.59;4923868;29;20050;-72
2022/11/28 04:45:48;;;;;;;8.43;5.95;;;;;;;7.30;99.58;100853.22;4920213;29;20534;-72
2022/11/28 04:48:16;;;;;;;8.82;6.32;;;;;;;7.31;99.56;100847.09;4931647;29;20044;-72
2022/11/28 04:51:20;;;;;;;10.25;6.40;;;;;;;7.30;99.71;100846.22;4931927;29;20044;-71
2022/11/28 04:54:10;;;;;;;11.23;6.70;;;;;;;7.29;99.70;100847.13;4927114;28;20054;-72
2022/11/28 04:56:46;;;;;;;9.10;6.07;;;;;;;7.29;99.63;100847.13;4930861;28;20103;-72
2022/11/28 04:59:20;;;;;;;9.15;6.15;;;;;;;7.30;99.66;100847.97;4928442;29;20799;-72
2022/11/28 05:01:49;;;;;;;8.18;6.65;;;;;;;7.29;99.78;100848.84;4930825;28;20119;-71
2022/11/28 05:04:16;;;;;;;9.93;5.88;;;;;;;7.28;99.95;100845.38;4932430;28;20469;-71
2022/11/28 05:06:44;;;;;;;10.30;6.60;;;;;;;7.29;100.00;100848.84;4929315;28;20470;-71
2022/11/28 05:09:12;;;;;;;11.18;6.68;;;;;;;7.30;99.88;100842.72;4932203;28;20087;-69
2022/11/28 05:11:40;;;;;;;9.43;6.72;;;;;;;7.29;100.00;100841.00;4927241;28;20049;-67
2022/11/28 05:14:07;;;;;;;9.77;6.90;;;;;;;7.29;100.00;100846.22;4922464;29;20100;-67
2022/11/28 05:16:35;;;;;;;12.32;7.00;;;;;;;7.28;99.95;100842.75;4926386;29;20041;-67
2022/11/28 05:19:02;;;;;;;13.20;7.75;;;;;;;7.28;100.00;100849.75;4926820;28;20044;-67
2022/11/28 05:21:29;;;;;;;10.93;6.53;;;;;;;7.28;100.00;100852.38;4933469;28;20040;-66
2022/11/28 05:23:56;;;;;;;10.95;7.47;;;;;;;7.29;100.00;100851.47;4931604;28;20119;-67
2022/11/28 05:26:24;;;;;;;11.50;7.15;;;;;;;7.30;100.00;100851.47;4915026;29;20187;-66
2022/11/28 05:28:52;;;;;;;11.88;6.97;;;;;;;7.33;100.00;100853.19;4929531;28;20049;-67
2022/11/28 05:31:20;;;;;;;12.07;7.07;;;;;;;7.35;100.00;100855.75;4935351;28;20055;-70
2022/11/28 05:33:47;;;;;;;10.93;7.05;;;;;;;7.35;100.00;100854.03;4938289;28;20044;-71
2022/11/28 05:36:16;;;;;;;12.07;6.85;;;;;;;7.36;100.00;100855.75;4939260;28;20561;-71
2022/11/28 05:38:44;;;;;;;12.32;7.00;;;;;;;7.37;100.00;100861.84;4938772;28;20467;-72
2022/11/28 05:41:22;;;;;;;10.45;7.00;;;;;;;7.38;100.00;100861.81;4936955;28;20044;-72
2022/11/28 05:43:51;;;;;;;11.48;7.20;;;;;;;7.38;100.00;100860.97;4933994;28;20048;-72
2022/11/28 05:46:19;;;;;;;10.73;7.32;;;;;;;7.38;100.00;100864.44;4938285;28;20040;-72
2022/11/28 05:48:46;;;;;;;10.73;6.75;;;;;;;7.39;100.00;100868.78;4931671;28;20041;-72
2022/11/28 05:51:14;;;;;;;10.63;6.65;;;;;;;7.39;100.00;100865.31;4936159;28;20048;-69
2022/11/28 05:53:41;;;;;;;12.10;7.03;;;;;;;7.42;100.00;100863.50;4934882;28;20044;-69
2022/11/28 05:56:14;;;;;;;10.60;6.93;;;;;;;7.48;100.00;100866.94;4941329;28;20140;-69
2022/11/28 05:58:42;;;;;;;10.13;7.15;;;;;;;7.51;100.00;100867.75;4933607;28;20474;-68
2022/11/28 06:01:11;;;;;;;9.80;6.55;;;;;;;7.53;100.00;100867.72;4932580;29;20489;-68
2022/11/28 06:03:38;;;;;;;8.18;6.32;;;;;;;7.57;100.00;100851.03;4934517;28;20135;-68
2022/11/28 06:06:16;;;;;;;8.23;5.75;;;;;;;7.61;100.00;100855.31;4934975;28;20139;-68
2022/11/28 06:08:46;;;;;;;11.00;7.00;;;;;;;7.70;100.00;100856.91;4934263;28;20493;-68
2022/11/28 06:11:15;;;;;;;9.40;5.93;;;;;;;7.78;100.00;100857.63;4929841;28;20507;-69
2022/11/28 06:13:44;;;;;;;9.68;6.30;;;;;;;7.86;100.00;100857.50;4926694;28;20045;-69
2022/11/28 06:16:25;;;;;;;9.65;6.28;;;;;;;7.90;100.00;100851.28;4921934;29;20966;-69
2022/11/28 06:18:59;;;;;;;11.85;6.07;;;;;;;7.98;99.69;100856.41;4931905;28;20143;-70
2022/11/28 06:21:27;;;;;;;;;;;;;;;8.00;99.17;100858.09;4937443;28;20052;-69
2022/11/28 06:23:57;;;;;;;11.65;5.70;;;;;;;8.00;98.96;100865.97;4937530;28;20025;-69
2022/11/28 06:26:28;;;;;;;7.60;5.50;;;;;;;8.01;98.61;100867.69;4926635;28;20049;-69
2022/11/28 06:28:55;;;;;;;9.60;6.28;;;;;;;8.02;98.60;100869.44;4934018;28;20048;-69
2022/11/28 06:31:27;;;;;;;10.20;6.20;;;;;;;7.98;98.29;100869.53;4939492;28;20499;-68
2022/11/28 06:33:56;;;;;;;8.40;5.75;;;;;;;7.88;98.21;100871.47;4939915;28;20040;-69
2022/11/28 06:36:25;;;;;;;8.88;6.57;;;;;;;7.82;98.56;100877.69;4939271;28;20521;-69
2022/11/28 06:38:53;;;;;;;7.82;6.25;;;;;;;7.77;98.53;100871.66;4936648;28;20597;-69
2022/11/28 06:41:21;;;;;;;9.77;6.55;;;;;;;7.72;98.78;100871.75;4935041;28;20073;-68
2022/11/28 06:43:49;;;;;;;11.73;7.00;;;;;;;7.69;98.90;100868.31;4934863;28;20036;-69
2022/11/28 06:46:20;;;;;;;11.02;6.30;;;;;;;7.65;98.96;100867.50;4948023;28;20529;-69
2022/11/28 06:48:50;;;;;;;9.48;6.45;;;;;;;7.65;99.08;100879.75;4936083;28;20051;-69
2022/11/28 06:51:19;;;;;;;10.75;6.60;;;;;;;7.61;99.19;100873.69;4938566;28;20870;-69
2022/11/28 06:53:49;;;;;;;11.85;6.55;;;;;;;7.58;99.27;100871.97;4934943;28;20511;-69
2022/11/28 06:56:18;;;;;;;10.98;7.40;;;;;;;7.56;99.44;100878.16;4948007;28;20440;-69
2022/11/28 06:58:52;;;;;;;11.30;6.65;;;;;;;7.56;99.69;100883.41;4938850;28;20119;-70
2022/11/28 07:01:23;;;;;;;9.38;7.25;;;;;;;7.55;99.82;100881.66;4934863;28;20087;-69
2022/11/28 07:03:53;;;;;;;36.97;20.42;;;;;;;7.55;99.73;100879.91;4949340;28;20155;-70
2022/11/28 07:06:23;;;;;;;14.85;8.18;;;;;;;7.55;99.81;100886.91;4934415;28;21058;-71
2022/11/28 07:08:50;;;;;;;13.23;8.07;;;;;;;7.54;99.94;100890.44;4929020;29;20046;-71
2022/11/28 07:11:23;;;;;;;15.05;9.32;;;;;;;7.54;99.93;100895.69;4933571;29;20886;-70
2022/11/28 07:13:53;;;;;;;31.48;16.92;;;;;;;7.53;99.84;100886.91;4935340;28;20524;-70
2022/11/28 07:16:30;;;;;;;28.17;17.05;;;;;;;7.51;100.00;100890.47;4935058;28;20119;-69
2022/11/28 07:18:59;;;;;;;14.02;9.80;;;;;;;7.52;100.00;100885.22;4934177;28;20043;-69
2022/11/28 07:21:27;;;;;;;14.63;10.93;;;;;;;7.54;100.00;100890.44;4930090;29;20036;-69
2022/11/28 07:23:58;;;;;;;14.38;8.85;;;;;;;7.52;100.00;100894.84;4920869;28;20052;-70
2022/11/28 07:26:25;;;;;;;12.73;8.00;;;;;;;7.52;100.00;100889.59;4934754;29;20044;-69
2022/11/28 07:28:54;;;;;;;12.00;8.20;;;;;;;7.52;100.00;100897.47;4935398;28;20044;-69
2022/11/28 07:31:30;;;;;;;11.98;8.10;;;;;;;7.52;100.00;100897.47;4934753;28;20046;-70
2022/11/28 07:34:04;;;;;;;13.60;9.40;;;;;;;7.50;100.00;100894.88;4934955;28;20048;-69
2022/11/28 07:36:31;;;;;;;13.35;8.98;;;;;;;7.49;100.00;100892.25;4934620;28;20040;-69
2022/11/28 07:39:02;;;;;;;10.95;7.82;;;;;;;7.49;100.00;100894.88;4933493;28;20546;-69
2022/11/28 07:41:29;;;;;;;11.02;8.48;;;;;;;7.49;100.00;100889.63;4934706;28;20044;-69
2022/11/28 07:44:01;;;;;;;11.90;7.78;;;;;;;7.48;100.00;100888.78;4922877;28;20489;-70
2022/11/28 07:46:30;;;;;;;12.77;8.38;;;;;;;7.49;100.00;100889.63;4934290;28;20080;-69
2022/11/28 07:48:59;;;;;;;11.88;9.30;;;;;;;7.49;100.00;100892.25;4927453;28;20816;-69
2022/11/28 07:51:30;;;;;;;14.57;10.80;;;;;;;7.49;100.00;100893.13;4938891;28;20759;-69
2022/11/28 07:53:58;;;;;;;17.08;12.15;;;;;;;7.49;100.00;100893.13;4933389;29;20096;-69
2022/11/28 07:56:29;;;;;;;17.75;12.85;;;;;;;7.50;100.00;100900.13;4934117;29;20138;-69
2022/11/28 07:59:16;;;;;;;27.13;19.30;;;;;;;7.51;100.00;100895.72;4927498;29;20056;-69
2022/11/28 08:01:43;;;;;;;19.65;13.10;;;;;;;7.52;100.00;100898.34;4931952;29;20044;-69
2022/11/28 08:04:17;;;;;;;18.05;14.07;;;;;;;7.55;100.00;100905.28;4934550;28;20123;-70
2022/11/28 08:06:44;;;;;;;21.10;14.65;;;;;;;7.55;100.00;100907.91;4932745;28;20526;-70
2022/11/28 08:09:11;;;;;;;18.70;12.93;;;;;;;7.56;100.00;100912.28;4931638;29;20047;-70
2022/11/28 08:11:39;;;;;;;16.65;11.70;;;;;;;7.57;100.00;100911.38;4934338;28;20044;-69
2022/11/28 08:14:06;;;;;;;16.27;11.55;;;;;;;7.57;100.00;100908.75;4934690;28;20044;-69
2022/11/28 08:16:35;;;;;;;14.02;9.85;;;;;;;7.59;100.00;100917.44;4932207;28;20126;-68
2022/11/28 08:19:02;;;;;;;13.93;10.23;;;;;;;7.59;100.00;100912.19;4933303;28;20051;-69
2022/11/28 08:21:32;;;;;;;15.13;10.35;;;;;;;7.60;100.00;100909.56;4932883;28;20040;-70
2022/11/28 08:24:01;;;;;;;15.65;9.43;;;;;;;7.60;100.00;100914.81;4928390;28;20040;-70
2022/11/28 08:26:32;;;;;;;17.15;10.90;;;;;;;7.61;100.00;100923.53;4933647;28;20052;-69
2022/11/28 08:29:01;;;;;;;12.10;9.50;;;;;;;7.64;100.00;100912.13;4934183;28;20043;-68
2022/11/28 08:31:35;;;;;;;14.70;9.13;;;;;;;7.65;100.00;100917.34;4933948;28;20056;-68
2022/11/28 08:34:06;;;;;;;12.48;8.20;;;;;;;7.68;100.00;100919.91;4931089;28;20040;-68
2022/11/28 08:36:34;;;;;;;12.70;8.48;;;;;;;7.70;100.00;100914.66;4916956;29;20045;-68
2022/11/28 08:39:02;;;;;;;10.10;8.10;;;;;;;7.69;100.00;100915.53;4926297;29;20060;-67
2022/11/28 08:41:49;;;;;;;11.43;7.90;;;;;;;7.70;100.00;100923.38;4933272;28;20056;-68
2022/11/28 08:44:17;;;;;;;11.98;7.57;;;;;;;7.70;100.00;100925.16;4933333;28;20103;-68
2022/11/28 08:46:44;;;;;;;11.77;7.40;;;;;;;7.70;100.00;100928.63;4933901;28;20044;-68
2022/11/28 08:49:17;;;;;;;10.98;7.63;;;;;;;7.72;100.00;100929.47;4934076;28;20811;-68
2022/11/28 08:51:44;;;;;;;12.68;7.95;;;;;;;7.72;100.00;100929.47;4933273;28;20043;-67
2022/11/28 08:54:11;;;;;;;11.25;7.40;;;;;;;7.73;100.00;100931.22;4934416;28;20052;-67
2022/11/28 08:56:38;;;;;;;11.23;7.72;;;;;;;7.74;100.00;100934.69;4933922;28;20098;-67
2022/11/28 08:59:06;;;;;;;10.68;7.95;;;;;;;7.76;100.00;100927.66;4934049;29;20044;-67
2022/11/28 09:01:33;;;;;;;12.48;7.60;;;;;;;7.76;100.00;100931.16;4934217;28;20153;-67
2022/11/28 09:04:00;;;;;;;9.20;6.60;;;;;;;7.77;100.00;100929.38;4948236;28;20079;-67
2022/11/28 09:06:27;;;;;;;11.50;6.93;;;;;;;7.81;100.00;100927.56;4933473;28;20037;-67
2022/11/28 09:08:54;;;;;;;10.75;6.72;;;;;;;7.82;100.00;100924.94;4933879;28;20119;-68
2022/11/28 09:11:22;;;;;;;12.48;7.30;;;;;;;7.86;100.00;100925.75;4933345;28;20131;-68
2022/11/28 09:13:50;;;;;;;11.95;7.07;;;;;;;7.87;100.00;100933.59;4933807;28;20100;-68
2022/11/28 09:16:18;;;;;;;12.27;7.78;;;;;;;7.90;100.00;100938.78;4933593;28;20056;-68
2022/11/28 09:18:45;;;;;;;10.43;7.57;;;;;;;7.93;100.00;100930.00;4933759;28;20052;-67
2022/11/28 09:21:14;;;;;;;15.32;9.75;;;;;;;7.96;100.00;100934.31;4933142;28;20075;-68
2022/11/28 09:23:43;;;;;;;10.52;7.70;;;;;;;7.98;100.00;100933.41;4932684;28;20052;-67
2022/11/28 09:26:17;;;;;;;13.35;8.38;;;;;;;8.00;100.00;100934.22;4933483;29;20052;-67
2022/11/28 09:28:46;;;;;;;14.95;10.82;;;;;;;8.00;100.00;100934.22;4933401;28;20047;-67
2022/11/28 09:31:15;;;;;;;12.60;9.18;;;;;;;7.99;100.00;100940.38;4932463;28;20099;-67
2022/11/28 09:33:45;;;;;;;15.15;9.15;;;;;;;7.99;100.00;100937.75;4933240;28;20059;-67
2022/11/28 09:36:17;;;;;;;12.57;7.90;;;;;;;8.00;100.00;100949.97;4933550;28;20542;-68
2022/11/28 09:38:44;;;;;;;11.52;8.02;;;;;;;8.00;100.00;100949.97;4932623;29;20587;-68
2022/11/28 09:41:41;;;;;;;11.77;7.50;;;;;;;8.03;100.00;100946.47;4933329;28;20510;-68
2022/11/28 09:44:18;;;;;;;12.10;7.28;;;;;;;8.00;100.00;100939.47;4933628;28;20044;-67
2022/11/28 09:46:51;;;;;;;11.73;7.95;;;;;;;8.04;100.00;100945.53;4933691;28;20115;-67
2022/11/28 09:49:33;;;;;;;14.90;8.70;;;;;;;8.04;100.00;100941.16;4933590;28;20049;-67
2022/11/28 09:52:35;;;;;;;14.55;9.77;;;;;;;8.09;100.00;100947.19;4922702;28;20566;-68
2022/11/28 09:55:31;;;;;;;14.13;10.25;;;;;;;8.13;100.00;100950.66;4925150;29;20097;-68
2022/11/28 09:58:08;;;;;;;13.15;9.13;;;;;;;8.14;100.00;100949.72;4915341;28;20059;-68
2022/11/28 10:00:52;;;;;;;13.68;9.23;;;;;;;8.21;100.00;100954.00;4917373;29;20044;-68
2022/11/28 10:03:27;;;;;;;11.55;8.48;;;;;;;8.22;100.00;100953.09;4931977;28;20040;-68
2022/11/28 10:06:25;;;;;;;12.00;8.52;;;;;;;8.25;100.00;100957.44;4915670;29;20992;-67
2022/11/28 10:09:27;;;;;;;12.02;8.38;;;;;;;8.26;100.00;100959.16;4917547;29;20045;-67
2022/11/28 10:12:39;;;;;;;12.05;7.45;;;;;;;8.26;100.00;100956.53;4913877;29;20053;-67
2022/11/28 10:15:41;;;;;;;10.85;7.13;;;;;;;8.24;100.00;100956.53;4909151;28;20095;-67
2022/11/28 10:18:36;;;;;;;8.85;7.07;;;;;;;8.26;100.00;100963.53;4939836;28;20057;-68
2022/11/28 10:21:16;;;;;;;;;;;;;;;8.23;100.00;100957.47;4914414;29;20055;-67
2022/11/28 10:23:46;;;;;;;11.85;8.95;;;;;;;8.27;100.00;100955.66;4920217;28;19954;-68
2022/11/28 10:26:41;;;;;;;13.30;10.18;;;;;;;8.31;100.00;100954.66;4928195;29;20046;-69
2022/11/28 10:29:39;;;;;;;;;;;;;;;8.29;100.00;100950.34;4932479;29;20052;-69
2022/11/28 10:32:16;;;;;;;19.45;14.80;;;;;;;8.31;100.00;100948.56;4932105;28;19927;-69
2022/11/28 10:35:03;;;;;;;14.52;10.93;;;;;;;8.39;100.00;100955.38;4929890;29;20518;-69
2022/11/28 10:37:35;;;;;;;14.88;12.50;;;;;;;8.41;100.00;100947.50;4930226;28;20569;-69
2022/11/28 10:40:57;;;;;;;12.00;9.75;;;;;;;8.47;100.00;100951.75;4930158;28;20060;-69
2022/11/28 10:43:43;;;;;;;16.67;11.02;;;;;;;8.49;100.00;100948.22;4931237;28;20530;-69
2022/11/28 10:46:31;;;;;;;14.10;9.52;;;;;;;8.50;100.00;100947.34;4935580;28;20048;-69
2022/11/28 10:49:07;;;;;;;14.13;10.30;;;;;;;8.53;100.00;100949.91;4917452;29;20045;-69
2022/11/28 10:52:03;;;;;;;26.60;18.38;;;;;;;8.58;100.00;100946.31;4916618;29;20041;-69
2022/11/28 10:54:57;;;;;;;;;;;;;;;8.57;100.00;100948.09;4925491;29;20065;-70
2022/11/28 10:57:53;;;;;;;11.02;8.63;;;;;;;8.61;100.00;100952.38;4921386;28;19931;-69
2022/11/28 11:00:20;;;;;;;;;;;;;;;8.61;100.00;100952.38;4936488;28;20060;-70
2022/11/28 11:02:47;;;;;;;18.00;15.32;;;;;;;8.63;100.00;100944.47;4925813;28;19934;-69
2022/11/28 11:05:32;;;;;;;10.25;7.57;;;;;;;8.67;100.00;100944.38;4917730;29;20045;-68
2022/11/28 11:08:22;;;;;;;9.35;6.88;;;;;;;8.69;100.00;100942.59;4919066;29;20040;-69
2022/11/28 11:11:26;;;;;;;9.02;7.10;;;;;;;8.72;100.00;100948.66;4936993;29;20498;-69
2022/11/28 11:14:09;;;;;;;8.82;7.57;;;;;;;8.73;100.00;100946.00;4933562;29;20060;-69
2022/11/28 11:16:57;;;;;;;11.63;7.38;;;;;;;8.75;100.00;100943.34;4933260;28;20143;-69
2022/11/28 11:19:42;;;;;;;8.52;6.95;;;;;;;8.76;100.00;100945.06;4916762;29;20044;-69
2022/11/28 11:22:28;;;;;;;10.80;7.63;;;;;;;8.78;100.00;100948.53;4916663;29;20043;-69
2022/11/28 11:25:03;;;;;;;;;;;;;;;8.76;100.00;100935.41;4924298;29;20048;-69
2022/11/28 11:27:36;;;;;;;35.63;29.33;;;;;;;8.77;100.00;100942.41;4926920;28;19935;-69
2022/11/28 11:30:44;;;;;;;15.50;10.13;;;;;;;8.79;100.00;100932.72;4917725;29;20045;-69
2022/11/28 11:33:16;;;;;;;11.75;10.40;;;;;;;8.80;100.00;100939.72;4922136;29;20187;-69
2022/11/28 11:35:48;;;;;;;10.45;9.35;;;;;;;8.79;100.00;100942.38;4921352;28;20052;-69
2022/11/28 11:38:28;;;;;;;10.60;7.22;;;;;;;8.80;100.00;100944.13;4917723;29;20040;-70
2022/11/28 11:41:28;;;;;;;11.35;9.93;;;;;;;8.82;100.00;100943.19;4918158;29;20048;-70
2022/11/28 11:44:13;;;;;;;10.95;9.77;;;;;;;8.81;100.00;100941.44;4928588;29;20045;-69
2022/11/28 11:47:04;;;;;;;9.70;8.70;;;;;;;8.82;100.00;100944.94;4929119;28;20096;-69
2022/11/28 11:49:43;;;;;;;12.93;7.32;;;;;;;8.80;100.00;100944.13;4933305;29;20044;-67
2022/11/28 11:52:13;;;;;;;11.40;8.65;;;;;;;8.81;100.00;100946.72;4935011;28;20494;-67
2022/11/28 11:54:58;;;;;;;14.00;10.32;;;;;;;8.83;100.00;100947.53;4933270;29;20084;-68
2022/11/28 11:57:38;;;;;;;10.93;9.63;;;;;;;8.85;100.00;100956.25;4933804;28;20044;-68
2022/11/28 12:00:08;;;;;;;8.15;7.00;;;;;;;8.85;100.00;100953.63;4917986;28;20571;-68
2022/11/28 12:02:45;;;;;;;8.82;7.30;;;;;;;8.88;100.00;100952.72;4919045;29;20040;-68
2022/11/28 12:05:22;;;;;;;9.68;7.70;;;;;;;8.88;100.00;100957.09;4924437;29;20044;-68
2022/11/28 12:08:10;;;;;;;8.50;7.10;;;;;;;8.86;100.00;100941.34;4922058;28;20041;-68